sensor_id;sensor_type;location;lat;lon;timestamp;pressure;altitude;pressure_sealevel;temperature;humidity
69171;BME280;56279;47.902;12.308;2023-05-20T00:00:16;95384.44;;;11.35;93.04
69171;BME280;56279;47.902;12.308;2023-05-20T00:02:17;95388.94;;;11.35;92.99
69171;BME280;56279;47.902;12.308;2023-05-20T00:04:18;95379.72;;;11.32;93.49
69171;BME280;56279;47.902;12.308;2023-05-20T00:06:20;95380.00;;;11.31;93.31
69171;BME280;56279;47.902;12.308;2023-05-20T00:08:21;95380.31;;;11.29;93.41
69171;BME280;56279;47.902;12.308;2023-05-20T00:10:23;95380.56;;;11.28;93.39
69171;BME280;56279;47.902;12.308;2023-05-20T00:12:24;95377.66;;;11.29;93.14
69171;BME280;56279;47.902;12.308;2023-05-20T00:14:26;95377.38;;;11.31;93.58
69171;BME280;56279;47.902;12.308;2023-05-20T00:16:27;95374.44;;;11.32;93.47
69171;BME280;56279;47.902;12.308;2023-05-20T00:18:28;95374.72;;;11.31;93.52
69171;BME280;56279;47.902;12.308;2023-05-20T00:20:29;95375.28;;;11.28;93.31
69171;BME280;56279;47.902;12.308;2023-05-20T00:22:31;95376.06;;;11.28;93.63
69171;BME280;56279;47.902;12.308;2023-05-20T00:24:32;95376.63;;;11.25;93.72
69171;BME280;56279;47.902;12.308;2023-05-20T00:26:35;95368.69;;;11.25;93.76
69171;BME280;56279;47.902;12.308;2023-05-20T00:28:36;95369.78;;;11.24;93.77
69171;BME280;56279;47.902;12.308;2023-05-20T00:30:40;95363.19;;;11.22;93.87
69171;BME280;56279;47.902;12.308;2023-05-20T00:32:42;95358.19;;;11.20;93.76
69171;BME280;56279;47.902;12.308;2023-05-20T00:34:54;95363.53;;;11.15;93.73
69171;BME280;56279;47.902;12.308;2023-05-20T00:36:55;95372.00;;;11.12;94.13
69171;BME280;56279;47.902;12.308;2023-05-20T00:38:57;95363.28;;;11.11;94.25
69171;BME280;56279;47.902;12.308;2023-05-20T00:40:58;95363.28;;;11.11;94.29
69171;BME280;56279;47.902;12.308;2023-05-20T00:42:59;95366.72;;;11.12;94.40
69171;BME280;56279;47.902;12.308;2023-05-20T00:45:01;95367.78;;;11.11;94.45
69171;BME280;56279;47.902;12.308;2023-05-20T00:47:03;95370.69;;;11.09;94.65
69171;BME280;56279;47.902;12.308;2023-05-20T00:49:05;95368.06;;;11.09;94.89
69171;BME280;56279;47.902;12.308;2023-05-20T00:51:07;95356.44;;;11.10;94.85
69171;BME280;56279;47.902;12.308;2023-05-20T00:53:08;95361.44;;;11.12;95.02
69171;BME280;56279;47.902;12.308;2023-05-20T00:55:10;95362.22;;;11.13;95.14
69171;BME280;56279;47.902;12.308;2023-05-20T00:57:25;95357.22;;;11.11;94.96
69171;BME280;56279;47.902;12.308;2023-05-20T00:59:26;95358.25;;;11.15;95.29
69171;BME280;56279;47.902;12.308;2023-05-20T01:01:28;95366.16;;;11.15;95.27
69171;BME280;56279;47.902;12.308;2023-05-20T01:03:29;95361.66;;;11.16;95.26
69171;BME280;56279;47.902;12.308;2023-05-20T01:05:31;95360.31;;;11.18;95.31
69171;BME280;56279;47.902;12.308;2023-05-20T01:07:32;95359.53;;;11.18;95.50
69171;BME280;56279;47.902;12.308;2023-05-20T01:09:35;95352.69;;;11.17;95.55
69171;BME280;56279;47.902;12.308;2023-05-20T01:11:43;95362.44;;;11.16;95.62
69171;BME280;56279;47.902;12.308;2023-05-20T01:13:49;95361.66;;;11.16;95.46
69171;BME280;56279;47.902;12.308;2023-05-20T01:15:53;95365.38;;;11.15;95.00
69171;BME280;56279;47.902;12.308;2023-05-20T01:17:57;95363.03;;;11.13;95.37
69171;BME280;56279;47.902;12.308;2023-05-20T01:20:05;95358.50;;;11.13;95.50
69171;BME280;56279;47.902;12.308;2023-05-20T01:22:11;95362.72;;;11.15;95.25
69171;BME280;56279;47.902;12.308;2023-05-20T01:24:12;95363.28;;;11.11;95.36
69171;BME280;56279;47.902;12.308;2023-05-20T01:26:14;95365.13;;;11.11;95.48
69171;BME280;56279;47.902;12.308;2023-05-20T01:28:15;95357.50;;;11.09;95.57
69171;BME280;56279;47.902;12.308;2023-05-20T01:30:18;95353.25;;;11.08;95.89
69171;BME280;56279;47.902;12.308;2023-05-20T01:32:26;95345.91;;;11.05;95.95
69171;BME280;56279;47.902;12.308;2023-05-20T01:34:28;95344.34;;;11.04;96.03
69171;BME280;56279;47.902;12.308;2023-05-20T01:36:31;95346.19;;;11.04;96.35
69171;BME280;56279;47.902;12.308;2023-05-20T01:38:34;95341.19;;;11.02;96.28
69171;BME280;56279;47.902;12.308;2023-05-20T01:40:37;95347.25;;;11.03;96.28
69171;BME280;56279;47.902;12.308;2023-05-20T01:42:40;95340.41;;;11.02;96.20
69171;BME280;56279;47.902;12.308;2023-05-20T01:44:42;95344.63;;;11.03;95.97
69171;BME280;56279;47.902;12.308;2023-05-20T01:46:48;95344.38;;;10.99;96.15
69171;BME280;56279;47.902;12.308;2023-05-20T01:48:49;95350.44;;;11.00;96.49
69171;BME280;56279;47.902;12.308;2023-05-20T01:50:52;95343.59;;;10.99;96.36
69171;BME280;56279;47.902;12.308;2023-05-20T01:52:53;95349.66;;;10.99;96.21
69171;BME280;56279;47.902;12.308;2023-05-20T01:54:54;95352.59;;;10.98;96.10
69171;BME280;56279;47.902;12.308;2023-05-20T01:56:56;95358.91;;;10.97;96.12
69171;BME280;56279;47.902;12.308;2023-05-20T01:58:59;95353.94;;;10.95;96.14
69171;BME280;56279;47.902;12.308;2023-05-20T02:01:00;95348.94;;;10.94;96.18
69171;BME280;56279;47.902;12.308;2023-05-20T02:03:04;95344.69;;;10.93;96.16
69171;BME280;56279;47.902;12.308;2023-05-20T02:05:06;95345.78;;;10.92;96.23
69171;BME280;56279;47.902;12.308;2023-05-20T02:07:07;95342.34;;;10.91;96.25
69171;BME280;56279;47.902;12.308;2023-05-20T02:09:09;95345.50;;;10.93;96.12
69171;BME280;56279;47.902;12.308;2023-05-20T02:11:10;95333.09;;;10.94;96.30
69171;BME280;56279;47.902;12.308;2023-05-20T02:13:11;95333.59;;;10.96;96.09
69171;BME280;56279;47.902;12.308;2023-05-20T02:15:13;95337.03;;;10.96;96.45
69171;BME280;56279;47.902;12.308;2023-05-20T02:17:16;95339.63;;;11.01;96.14
69171;BME280;56279;47.902;12.308;2023-05-20T02:19:17;95342.19;;;11.06;96.16
69171;BME280;56279;47.902;12.308;2023-05-20T02:21:23;95336.88;;;11.11;96.09
69171;BME280;56279;47.902;12.308;2023-05-20T02:23:25;95332.09;;;11.13;95.91
69171;BME280;56279;47.902;12.308;2023-05-20T02:25:27;95336.03;;;11.16;96.14
69171;BME280;56279;47.902;12.308;2023-05-20T02:27:28;95335.78;;;11.18;95.89
69171;BME280;56279;47.902;12.308;2023-05-20T02:29:29;95336.78;;;11.22;95.68
69171;BME280;56279;47.902;12.308;2023-05-20T02:31:31;95334.34;;;11.25;95.58
69171;BME280;56279;47.902;12.308;2023-05-20T02:33:32;95331.16;;;11.28;95.58
69171;BME280;56279;47.902;12.308;2023-05-20T02:35:35;95325.59;;;11.30;95.35
69171;BME280;56279;47.902;12.308;2023-05-20T02:37:37;95329.53;;;11.32;95.50
69171;BME280;56279;47.902;12.308;2023-05-20T02:39:39;95329.03;;;11.30;95.75
69171;BME280;56279;47.902;12.308;2023-05-20T02:41:40;95330.59;;;11.31;95.75
69171;BME280;56279;47.902;12.308;2023-05-20T02:43:42;95335.88;;;11.31;96.07
69171;BME280;56279;47.902;12.308;2023-05-20T02:45:45;95335.88;;;11.31;96.17
69171;BME280;56279;47.902;12.308;2023-05-20T02:47:47;95341.69;;;11.33;96.32
69171;BME280;56279;47.902;12.308;2023-05-20T02:49:49;95342.47;;;11.34;96.49
69171;BME280;56279;47.902;12.308;2023-05-20T02:51:50;95338.75;;;11.35;96.39
69171;BME280;56279;47.902;12.308;2023-05-20T02:53:52;95347.97;;;11.37;96.29
69171;BME280;56279;47.902;12.308;2023-05-20T02:55:54;95347.47;;;11.35;96.19
69171;BME280;56279;47.902;12.308;2023-05-20T02:57:55;95349.31;;;11.35;96.56
69171;BME280;56279;47.902;12.308;2023-05-20T02:59:57;95331.91;;;11.34;97.06
69171;BME280;56279;47.902;12.308;2023-05-20T03:01:58;95327.38;;;11.34;96.57
69171;BME280;56279;47.902;12.308;2023-05-20T03:04:01;95325.53;;;11.35;96.88
69171;BME280;56279;47.902;12.308;2023-05-20T03:06:02;95335.53;;;11.38;96.89
69171;BME280;56279;47.902;12.308;2023-05-20T03:08:10;95326.63;;;11.34;96.81
69171;BME280;56279;47.902;12.308;2023-05-20T03:10:12;95329.53;;;11.32;96.87
69171;BME280;56279;47.902;12.308;2023-05-20T03:12:15;95326.38;;;11.30;97.24
69171;BME280;56279;47.902;12.308;2023-05-20T03:14:16;95329.84;;;11.26;97.02
69171;BME280;56279;47.902;12.308;2023-05-20T03:16:19;95329.34;;;11.24;97.03
69171;BME280;56279;47.902;12.308;2023-05-20T03:18:20;95323.88;;;11.20;97.19
69171;BME280;56279;47.902;12.308;2023-05-20T03:20:21;95328.91;;;11.17;97.34
69171;BME280;56279;47.902;12.308;2023-05-20T03:22:23;95335.31;;;11.10;97.36
69171;BME280;56279;47.902;12.308;2023-05-20T03:24:25;95333.22;;;11.07;97.58
69171;BME280;56279;47.902;12.308;2023-05-20T03:26:27;95336.41;;;11.04;97.73
69171;BME280;56279;47.902;12.308;2023-05-20T03:28:28;95327.47;;;11.00;97.70
69171;BME280;56279;47.902;12.308;2023-05-20T03:30:29;95325.69;;;10.96;98.02
69171;BME280;56279;47.902;12.308;2023-05-20T03:32:32;95323.31;;;10.94;97.95
69171;BME280;56279;47.902;12.308;2023-05-20T03:34:33;95318.59;;;10.91;98.16
69171;BME280;56279;47.902;12.308;2023-05-20T03:36:35;95325.22;;;10.89;98.28
69171;BME280;56279;47.902;12.308;2023-05-20T03:38:39;95326.56;;;10.86;97.95
69171;BME280;56279;47.902;12.308;2023-05-20T03:40:40;95318.91;;;10.85;97.97
69171;BME280;56279;47.902;12.308;2023-05-20T03:42:41;95324.97;;;10.85;98.07
69171;BME280;56279;47.902;12.308;2023-05-20T03:44:42;95319.19;;;10.83;98.30
69171;BME280;56279;47.902;12.308;2023-05-20T03:46:44;95331.88;;;10.81;98.41
69171;BME280;56279;47.902;12.308;2023-05-20T03:48:46;95327.13;;;10.78;98.59
69171;BME280;56279;47.902;12.308;2023-05-20T03:50:48;95332.97;;;10.80;98.68
69171;BME280;56279;47.902;12.308;2023-05-20T03:52:50;95333.47;;;10.82;98.46
69171;BME280;56279;47.902;12.308;2023-05-20T03:54:55;95344.53;;;10.84;98.52
69171;BME280;56279;47.902;12.308;2023-05-20T03:56:57;95352.66;;;10.88;98.65
69171;BME280;56279;47.902;12.308;2023-05-20T03:59:01;95335.47;;;10.90;98.37
69171;BME280;56279;47.902;12.308;2023-05-20T04:01:02;95330.72;;;10.92;98.40
69171;BME280;56279;47.902;12.308;2023-05-20T04:03:05;95326.22;;;10.93;98.42
69171;BME280;56279;47.902;12.308;2023-05-20T04:05:06;95333.34;;;10.92;97.95
69171;BME280;56279;47.902;12.308;2023-05-20T04:07:13;95338.91;;;10.91;98.46
69171;BME280;56279;47.902;12.308;2023-05-20T04:09:15;95332.59;;;10.92;98.38
69171;BME280;56279;47.902;12.308;2023-05-20T04:11:16;95341.53;;;10.96;98.46
69171;BME280;56279;47.902;12.308;2023-05-20T04:13:17;95342.78;;;11.03;98.31
69171;BME280;56279;47.902;12.308;2023-05-20T04:15:19;95341.59;;;11.15;98.16
69171;BME280;56279;47.902;12.308;2023-05-20T04:17:28;95348.63;;;11.24;97.59
69171;BME280;56279;47.902;12.308;2023-05-20T04:19:30;95346.47;;;11.31;97.18
69171;BME280;56279;47.902;12.308;2023-05-20T04:21:31;95349.06;;;11.36;96.88
69171;BME280;56279;47.902;12.308;2023-05-20T04:23:33;95346.63;;;11.40;96.70
69171;BME280;56279;47.902;12.308;2023-05-20T04:25:34;95347.41;;;11.40;96.39
69171;BME280;56279;47.902;12.308;2023-05-20T04:27:37;95351.91;;;11.40;96.28
69171;BME280;56279;47.902;12.308;2023-05-20T04:29:38;95348.75;;;11.38;96.34
69171;BME280;56279;47.902;12.308;2023-05-20T04:31:41;95349.56;;;11.38;96.34
69171;BME280;56279;47.902;12.308;2023-05-20T04:33:43;95346.63;;;11.40;96.48
69171;BME280;56279;47.902;12.308;2023-05-20T04:35:44;95354.00;;;11.43;96.25
69171;BME280;56279;47.902;12.308;2023-05-20T04:37:48;95357.94;;;11.45;96.40
69171;BME280;56279;47.902;12.308;2023-05-20T04:39:50;95362.94;;;11.47;96.45
69171;BME280;56279;47.902;12.308;2023-05-20T04:41:52;95353.94;;;11.48;96.35
69171;BME280;56279;47.902;12.308;2023-05-20T04:43:57;95346.53;;;11.50;96.29
69171;BME280;56279;47.902;12.308;2023-05-20T04:46:01;95349.66;;;11.52;96.17
69171;BME280;56279;47.902;12.308;2023-05-20T04:48:06;95334.81;;;11.56;96.05
69171;BME280;56279;47.902;12.308;2023-05-20T04:50:11;95347.97;;;11.61;96.20
69171;BME280;56279;47.902;12.308;2023-05-20T04:52:15;95341.84;;;11.65;96.07
69171;BME280;56279;47.902;12.308;2023-05-20T04:54:16;95339.91;;;11.76;95.96
69171;BME280;56279;47.902;12.308;2023-05-20T04:56:19;95337.13;;;11.86;95.56
69171;BME280;56279;47.902;12.308;2023-05-20T04:58:21;95335.91;;;11.97;95.29
69171;BME280;56279;47.902;12.308;2023-05-20T05:00:24;95351.09;;;12.10;94.92
69171;BME280;56279;47.902;12.308;2023-05-20T05:02:27;95344.09;;;12.19;94.37
69171;BME280;56279;47.902;12.308;2023-05-20T05:04:30;95341.63;;;12.23;94.11
69171;BME280;56279;47.902;12.308;2023-05-20T05:06:31;95341.88;;;12.26;94.03
69171;BME280;56279;47.902;12.308;2023-05-20T05:08:34;95335.72;;;12.31;94.05
69171;BME280;56279;47.902;12.308;2023-05-20T05:10:35;95333.00;;;12.36;93.76
69171;BME280;56279;47.902;12.308;2023-05-20T05:12:37;95334.50;;;12.42;93.67
69171;BME280;56279;47.902;12.308;2023-05-20T05:14:38;95334.66;;;12.51;93.76
69171;BME280;56279;47.902;12.308;2023-05-20T05:16:39;95339.00;;;12.60;93.19
69171;BME280;56279;47.902;12.308;2023-05-20T05:18:41;95336.25;;;12.65;92.67
69171;BME280;56279;47.902;12.308;2023-05-20T05:20:42;95334.88;;;12.68;92.49
69171;BME280;56279;47.902;12.308;2023-05-20T05:22:44;95330.09;;;12.70;92.26
69171;BME280;56279;47.902;12.308;2023-05-20T05:24:45;95332.16;;;12.73;92.07
69171;BME280;56279;47.902;12.308;2023-05-20T05:26:46;95330.59;;;12.72;91.98
69171;BME280;56279;47.902;12.308;2023-05-20T05:28:48;95324.28;;;12.68;92.05
69171;BME280;56279;47.902;12.308;2023-05-20T05:30:50;95325.59;;;12.70;92.19
69171;BME280;56279;47.902;12.308;2023-05-20T05:32:53;95329.13;;;12.79;92.61
69171;BME280;56279;47.902;12.308;2023-05-20T05:34:56;95326.53;;;12.93;92.07
69171;BME280;56279;47.902;12.308;2023-05-20T05:36:57;95329.31;;;13.01;91.31
69171;BME280;56279;47.902;12.308;2023-05-20T05:38:59;95325.28;;;13.04;91.27
69171;BME280;56279;47.902;12.308;2023-05-20T05:41:00;95328.56;;;13.14;91.10
69171;BME280;56279;47.902;12.308;2023-05-20T05:43:02;95338.03;;;13.34;90.90
69171;BME280;56279;47.902;12.308;2023-05-20T05:45:04;95324.78;;;13.48;90.03
69171;BME280;56279;47.902;12.308;2023-05-20T05:47:06;95326.84;;;13.51;89.84
69171;BME280;56279;47.902;12.308;2023-05-20T05:49:08;95332.81;;;13.56;89.75
69171;BME280;56279;47.902;12.308;2023-05-20T05:51:09;95323.41;;;13.64;89.48
69171;BME280;56279;47.902;12.308;2023-05-20T05:53:12;95322.72;;;13.72;89.37
69171;BME280;56279;47.902;12.308;2023-05-20T05:55:15;95325.47;;;13.80;88.47
69171;BME280;56279;47.902;12.308;2023-05-20T05:57:18;95320.44;;;13.93;88.20
69171;BME280;56279;47.902;12.308;2023-05-20T05:59:20;95324.84;;;13.97;88.30
69171;BME280;56279;47.902;12.308;2023-05-20T06:01:21;95318.25;;;13.95;88.02
69171;BME280;56279;47.902;12.308;2023-05-20T06:03:23;95323.25;;;13.96;88.06
69171;BME280;56279;47.902;12.308;2023-05-20T06:05:25;95322.78;;;13.94;87.96
69171;BME280;56279;47.902;12.308;2023-05-20T06:07:28;95324.16;;;13.92;87.90
69171;BME280;56279;47.902;12.308;2023-05-20T06:09:31;95329.78;;;13.90;87.96
69171;BME280;56279;47.902;12.308;2023-05-20T06:11:33;95325.53;;;13.89;88.27
69171;BME280;56279;47.902;12.308;2023-05-20T06:13:36;95329.38;;;13.97;88.02
69171;BME280;56279;47.902;12.308;2023-05-20T06:15:39;95315.09;;;14.06;87.71
69171;BME280;56279;47.902;12.308;2023-05-20T06:17:40;95319.56;;;14.19;87.48
69171;BME280;56279;47.902;12.308;2023-05-20T06:19:42;95311.13;;;14.31;86.69
69171;BME280;56279;47.902;12.308;2023-05-20T06:21:43;95311.41;;;14.29;86.21
69171;BME280;56279;47.902;12.308;2023-05-20T06:23:45;95311.72;;;14.28;86.59
69171;BME280;56279;47.902;12.308;2023-05-20T06:25:49;95304.63;;;14.37;85.89
69171;BME280;56279;47.902;12.308;2023-05-20T06:27:51;95306.44;;;14.50;85.43
69171;BME280;56279;47.902;12.308;2023-05-20T06:29:54;95308.28;;;14.63;85.15
69171;BME280;56279;47.902;12.308;2023-05-20T06:31:55;95305.97;;;14.70;84.61
69171;BME280;56279;47.902;12.308;2023-05-20T06:33:57;95317.19;;;14.67;84.57
69171;BME280;56279;47.902;12.308;2023-05-20T06:35:58;95314.66;;;14.62;84.74
69171;BME280;56279;47.902;12.308;2023-05-20T06:38:01;95324.84;;;14.69;84.61
69171;BME280;56279;47.902;12.308;2023-05-20T06:40:03;95317.19;;;14.67;84.64
69171;BME280;56279;47.902;12.308;2023-05-20T06:42:06;95311.81;;;14.81;84.54
69171;BME280;56279;47.902;12.308;2023-05-20T06:44:10;95320.97;;;14.97;84.53
69171;BME280;56279;47.902;12.308;2023-05-20T06:46:46;95315.88;;;15.09;84.46
69171;BME280;56279;47.902;12.308;2023-05-20T06:48:51;95319.81;;;15.11;84.24
69171;BME280;56279;47.902;12.308;2023-05-20T06:50:52;95315.41;;;15.07;84.52
69171;BME280;56279;47.902;12.308;2023-05-20T06:52:53;95312.88;;;15.02;84.30
69171;BME280;56279;47.902;12.308;2023-05-20T06:54:55;95310.03;;;14.98;84.54
69171;BME280;56279;47.902;12.308;2023-05-20T06:56:57;95308.78;;;14.96;84.71
69171;BME280;56279;47.902;12.308;2023-05-20T06:58:59;95314.88;;;14.96;84.76
69171;BME280;56279;47.902;12.308;2023-05-20T07:01:01;95305.38;;;15.04;84.54
69171;BME280;56279;47.902;12.308;2023-05-20T07:03:03;95296.69;;;15.12;84.48
69171;BME280;56279;47.902;12.308;2023-05-20T07:05:05;95299.69;;;15.19;84.29
69171;BME280;56279;47.902;12.308;2023-05-20T07:07:06;95299.69;;;15.19;83.85
69171;BME280;56279;47.902;12.308;2023-05-20T07:09:08;95306.06;;;15.18;83.93
69171;BME280;56279;47.902;12.308;2023-05-20T07:11:10;95303.78;;;15.25;83.69
69171;BME280;56279;47.902;12.308;2023-05-20T07:13:11;95300.19;;;15.30;83.34
69171;BME280;56279;47.902;12.308;2023-05-20T07:15:13;95294.09;;;15.29;83.34
69171;BME280;56279;47.902;12.308;2023-05-20T07:17:15;95292.34;;;15.24;83.34
69171;BME280;56279;47.902;12.308;2023-05-20T07:19:17;95297.53;;;15.30;83.09
69171;BME280;56279;47.902;12.308;2023-05-20T07:21:19;95300.66;;;15.32;82.77
69171;BME280;56279;47.902;12.308;2023-05-20T07:23:34;95292.22;;;15.30;83.00
69171;BME280;56279;47.902;12.308;2023-05-20T07:25:36;95289.44;;;15.35;82.71
69171;BME280;56279;47.902;12.308;2023-05-20T07:27:37;95285.06;;;15.39;82.22
69171;BME280;56279;47.902;12.308;2023-05-20T07:29:38;95279.59;;;15.44;82.13
69171;BME280;56279;47.902;12.308;2023-05-20T07:31:39;95278.38;;;15.50;82.23
69171;BME280;56279;47.902;12.308;2023-05-20T07:33:41;95266.88;;;15.63;82.22
69171;BME280;56279;47.902;12.308;2023-05-20T07:35:43;95272.97;;;15.72;81.75
69171;BME280;56279;47.902;12.308;2023-05-20T07:37:46;95275.78;;;15.75;81.29
69171;BME280;56279;47.902;12.308;2023-05-20T07:39:47;95275.50;;;15.85;80.50
69171;BME280;56279;47.902;12.308;2023-05-20T07:41:49;95273.03;;;15.89;80.39
69171;BME280;56279;47.902;12.308;2023-05-20T07:43:51;95269.09;;;15.95;80.19
69171;BME280;56279;47.902;12.308;2023-05-20T07:45:53;95263.16;;;16.07;79.06
69171;BME280;56279;47.902;12.308;2023-05-20T07:47:54;95262.41;;;16.15;79.65
69171;BME280;56279;47.902;12.308;2023-05-20T07:49:55;95260.53;;;16.24;79.42
69171;BME280;56279;47.902;12.308;2023-05-20T07:51:57;95265.38;;;16.30;78.68
69171;BME280;56279;47.902;12.308;2023-05-20T07:53:59;95257.53;;;16.34;78.93
69171;BME280;56279;47.902;12.308;2023-05-20T07:56:01;95261.75;;;16.43;79.06
69171;BME280;56279;47.902;12.308;2023-05-20T07:58:04;95260.38;;;16.54;78.65
69171;BME280;56279;47.902;12.308;2023-05-20T08:00:08;95267.41;;;16.68;77.91
69171;BME280;56279;47.902;12.308;2023-05-20T08:02:18;95269.56;;;16.83;77.61
69171;BME280;56279;47.902;12.308;2023-05-20T08:04:19;95261.88;;;16.98;77.04
69171;BME280;56279;47.902;12.308;2023-05-20T08:06:21;95261.78;;;17.15;76.21
69171;BME280;56279;47.902;12.308;2023-05-20T08:08:24;95264.56;;;17.27;75.67
69171;BME280;56279;47.902;12.308;2023-05-20T08:10:36;95255.59;;;17.41;75.06
69171;BME280;56279;47.902;12.308;2023-05-20T08:12:37;95262.63;;;17.54;74.57
69171;BME280;56279;47.902;12.308;2023-05-20T08:14:38;95261.75;;;17.70;74.07
69171;BME280;56279;47.902;12.308;2023-05-20T08:16:41;95261.50;;;17.84;73.24
69171;BME280;56279;47.902;12.308;2023-05-20T08:18:43;95262.38;;;17.97;72.71
69171;BME280;56279;47.902;12.308;2023-05-20T08:20:47;95265.31;;;18.04;72.33
69171;BME280;56279;47.902;12.308;2023-05-20T08:22:48;95264.28;;;18.17;71.69
69171;BME280;56279;47.902;12.308;2023-05-20T08:24:49;95252.88;;;18.28;71.47
69171;BME280;56279;47.902;12.308;2023-05-20T08:26:51;95251.03;;;18.41;71.35
69171;BME280;56279;47.902;12.308;2023-05-20T08:28:56;95257.69;;;18.55;70.94
69171;BME280;56279;47.902;12.308;2023-05-20T08:31:00;95256.25;;;18.58;70.12
69171;BME280;56279;47.902;12.308;2023-05-20T08:33:03;95249.56;;;18.52;69.59
69171;BME280;56279;47.902;12.308;2023-05-20T08:35:06;95253.22;;;18.47;69.68
69171;BME280;56279;47.902;12.308;2023-05-20T08:37:08;95243.78;;;18.41;68.68
69171;BME280;56279;47.902;12.308;2023-05-20T08:39:09;95253.72;;;18.41;69.03
69171;BME280;56279;47.902;12.308;2023-05-20T08:41:11;95255.44;;;18.45;68.77
69171;BME280;56279;47.902;12.308;2023-05-20T08:43:14;95255.69;;;18.52;68.68
69171;BME280;56279;47.902;12.308;2023-05-20T08:45:19;95249.16;;;18.62;68.20
69171;BME280;56279;47.902;12.308;2023-05-20T08:47:23;95253.53;;;18.79;68.34
69171;BME280;56279;47.902;12.308;2023-05-20T08:49:24;95244.44;;;18.92;67.65
69171;BME280;56279;47.902;12.308;2023-05-20T08:51:26;95239.69;;;18.97;66.55
69171;BME280;56279;47.902;12.308;2023-05-20T08:53:28;95243.13;;;18.98;67.08
69171;BME280;56279;47.902;12.308;2023-05-20T08:55:37;95234.44;;;19.01;67.53
69171;BME280;56279;47.902;12.308;2023-05-20T08:57:43;95232.56;;;19.01;66.99
69171;BME280;56279;47.902;12.308;2023-05-20T08:59:46;95229.44;;;18.99;67.04
69171;BME280;56279;47.902;12.308;2023-05-20T09:01:47;95234.00;;;18.99;66.18
69171;BME280;56279;47.902;12.308;2023-05-20T09:03:48;95228.97;;;18.97;66.28
69171;BME280;56279;47.902;12.308;2023-05-20T09:05:51;95243.56;;;19.00;65.69
69171;BME280;56279;47.902;12.308;2023-05-20T09:08:03;95236.78;;;19.02;65.68
69171;BME280;56279;47.902;12.308;2023-05-20T09:10:05;95240.59;;;19.13;65.93
69171;BME280;56279;47.902;12.308;2023-05-20T09:12:06;95228.00;;;19.26;65.41
69171;BME280;56279;47.902;12.308;2023-05-20T09:14:08;95242.00;;;19.44;64.68
69171;BME280;56279;47.902;12.308;2023-05-20T09:16:10;95233.50;;;19.66;64.38
69171;BME280;56279;47.902;12.308;2023-05-20T09:18:12;95238.72;;;19.86;64.86
69171;BME280;56279;47.902;12.308;2023-05-20T09:20:14;95240.94;;;19.96;63.41
69171;BME280;56279;47.902;12.308;2023-05-20T09:22:23;95243.25;;;20.10;63.41
69171;BME280;56279;47.902;12.308;2023-05-20T09:24:25;95235.00;;;20.15;62.92
69171;BME280;56279;47.902;12.308;2023-05-20T09:26:27;95234.75;;;20.20;63.08
69171;BME280;56279;47.902;12.308;2023-05-20T09:28:29;95231.09;;;20.25;63.06
69171;BME280;56279;47.902;12.308;2023-05-20T09:30:31;95225.94;;;20.32;63.24
69171;BME280;56279;47.902;12.308;2023-05-20T09:32:32;95231.56;;;20.42;62.51
69171;BME280;56279;47.902;12.308;2023-05-20T10:51:52;95177.19;;;21.01;60.92
69171;BME280;56279;47.902;12.308;2023-05-20T10:53:55;95170.56;;;21.10;60.12
69171;BME280;56279;47.902;12.308;2023-05-20T10:55:58;95169.34;;;21.23;60.02
69171;BME280;56279;47.902;12.308;2023-05-20T10:58:00;95171.84;;;21.32;58.93
69171;BME280;56279;47.902;12.308;2023-05-20T11:00:03;95166.91;;;21.34;58.48
69171;BME280;56279;47.902;12.308;2023-05-20T11:02:07;95172.06;;;21.43;58.56
69171;BME280;56279;47.902;12.308;2023-05-20T11:04:12;95167.03;;;21.57;59.05
69171;BME280;56279;47.902;12.308;2023-05-20T11:06:16;95170.75;;;21.68;57.52
69171;BME280;56279;47.902;12.308;2023-05-20T11:08:18;95170.13;;;21.74;57.30
69171;BME280;56279;47.902;12.308;2023-05-20T11:10:20;95165.00;;;21.85;58.04
69171;BME280;56279;47.902;12.308;2023-05-20T11:12:23;95170.63;;;21.95;57.19
69171;BME280;56279;47.902;12.308;2023-05-20T11:14:27;95160.78;;;22.03;56.65
69171;BME280;56279;47.902;12.308;2023-05-20T11:16:29;95156.25;;;22.07;56.14
69171;BME280;56279;47.902;12.308;2023-05-20T11:18:30;95159.78;;;22.11;56.42
69171;BME280;56279;47.902;12.308;2023-05-20T11:20:32;95156.84;;;22.16;55.77
69171;BME280;56279;47.902;12.308;2023-05-20T11:22:39;95158.22;;;22.29;56.04
69171;BME280;56279;47.902;12.308;2023-05-20T11:24:40;95150.38;;;22.40;55.66
69171;BME280;56279;47.902;12.308;2023-05-20T11:26:41;95154.84;;;22.51;56.30
69171;BME280;56279;47.902;12.308;2023-05-20T11:28:43;95150.44;;;22.62;55.47
69171;BME280;56279;47.902;12.308;2023-05-20T11:30:44;95151.06;;;22.75;55.53
69171;BME280;56279;47.902;12.308;2023-05-20T11:32:59;95145.84;;;22.86;54.98
69171;BME280;56279;47.902;12.308;2023-05-20T11:35:01;95144.13;;;22.97;54.80
69171;BME280;56279;47.902;12.308;2023-05-20T11:37:06;95136.56;;;23.06;53.57
69171;BME280;56279;47.902;12.308;2023-05-20T11:39:10;95134.00;;;23.13;53.61
69171;BME280;56279;47.902;12.308;2023-05-20T11:41:12;95136.34;;;23.14;53.04
69171;BME280;56279;47.902;12.308;2023-05-20T11:43:13;95127.56;;;23.17;52.10
69171;BME280;56279;47.902;12.308;2023-05-20T11:45:14;95138.38;;;23.21;52.43
69171;BME280;56279;47.902;12.308;2023-05-20T11:47:23;95131.47;;;23.23;51.30
69171;BME280;56279;47.902;12.308;2023-05-20T11:49:27;95130.41;;;23.28;52.10
69171;BME280;56279;47.902;12.308;2023-05-20T11:51:29;95124.03;;;23.36;51.59
69171;BME280;56279;47.902;12.308;2023-05-20T11:53:30;95123.78;;;23.48;51.12
69171;BME280;56279;47.902;12.308;2023-05-20T11:55:32;95124.38;;;23.61;49.92
69171;BME280;56279;47.902;12.308;2023-05-20T11:57:35;95125.97;;;23.65;49.33